createdAt,value
2023-01-30T00:01:02.702Z,85.11
2023-01-30T00:03:29.157Z,85.36
2023-01-30T00:05:55.519Z,85.88
2023-01-30T00:08:21.964Z,85.88
2023-01-30T00:10:49.339Z,85.57
2023-01-30T00:13:16.567Z,85.30
2023-01-30T00:15:42.962Z,84.99
2023-01-30T00:18:09.805Z,84.85
2023-01-30T00:20:37.128Z,84.89
2023-01-30T00:23:04.468Z,84.78
2023-01-30T00:25:31.617Z,85.04
2023-01-30T00:28:01.794Z,84.79
2023-01-30T00:30:29.809Z,85.70
2023-01-30T00:32:58.614Z,84.93
2023-01-30T00:35:28.476Z,85.12
2023-01-30T00:37:59.127Z,85.23
2023-01-30T00:40:26.957Z,84.70
2023-01-30T00:43:12.674Z,84.43
2023-01-30T00:46:04.820Z,84.80
2023-01-30T00:48:32.595Z,84.92
2023-01-30T00:50:59.108Z,84.70
2023-01-30T00:53:26.894Z,84.77
2023-01-30T00:55:54.277Z,84.65
2023-01-30T00:58:22.103Z,84.94
2023-01-30T01:00:49.830Z,85.59
2023-01-30T01:03:16.729Z,85.42
2023-01-30T01:05:43.621Z,85.49
2023-01-30T01:08:10.649Z,84.73
2023-01-30T01:10:37.406Z,85.23
2023-01-30T01:13:06.392Z,85.39
2023-01-30T01:15:33.702Z,86.21
2023-01-30T01:18:00.144Z,86.70
2023-01-30T01:20:26.543Z,86.50
2023-01-30T01:22:54.624Z,85.62
2023-01-30T01:25:22.159Z,85.23
2023-01-30T01:27:49.616Z,86.38
2023-01-30T01:30:17.419Z,86.52
2023-01-30T01:32:44.318Z,86.52
2023-01-30T01:35:11.244Z,87.08
2023-01-30T01:37:38.014Z,87.01
2023-01-30T01:40:24.702Z,86.93
2023-01-30T01:42:51.436Z,87.26
2023-01-30T01:45:25.067Z,87.46
2023-01-30T01:48:09.600Z,87.41
2023-01-30T01:50:53.319Z,86.97
2023-01-30T01:53:24.228Z,87.10
2023-01-30T01:55:53.847Z,88.32
2023-01-30T01:58:32.098Z,87.64
2023-01-30T02:01:01.158Z,88.69
2023-01-30T02:03:30.591Z,87.84
2023-01-30T02:06:00.803Z,87.71
2023-01-30T02:08:38.422Z,87.79
2023-01-30T02:11:21.271Z,87.78
2023-01-30T02:13:50.510Z,87.65
2023-01-30T02:16:17.770Z,87.85
2023-01-30T02:18:46.688Z,87.61
2023-01-30T02:21:34.350Z,87.50
2023-01-30T02:24:13.033Z,87.67
2023-01-30T02:27:13.545Z,87.84
2023-01-30T02:30:27.694Z,87.64
2023-01-30T02:33:31.109Z,86.83
2023-01-30T02:36:21.150Z,86.99
2023-01-30T02:38:59.730Z,87.76
2023-01-30T02:41:41.303Z,87.37
2023-01-30T02:44:23.700Z,87.40
2023-01-30T02:46:58.863Z,87.45
2023-01-30T02:49:32.242Z,86.48
2023-01-30T02:52:02.542Z,86.75
2023-01-30T02:54:29.136Z,86.89
2023-01-30T02:56:58.329Z,87.30
2023-01-30T02:59:27.840Z,87.19
2023-01-30T03:02:22.069Z,87.09
2023-01-30T03:05:08.524Z,86.71
2023-01-30T03:07:45.757Z,87.17
2023-01-30T03:10:33.897Z,86.69
2023-01-30T03:13:15.001Z,85.99
2023-01-30T03:15:49.869Z,86.41
2023-01-30T03:18:18.442Z,86.84
2023-01-30T03:20:45.227Z,86.42
2023-01-30T03:23:11.823Z,86.78
2023-01-30T03:25:40.425Z,85.89
2023-01-30T03:28:08.758Z,86.48
2023-01-30T03:30:35.289Z,86.23
2023-01-30T03:33:08.598Z,85.97
2023-01-30T03:35:36.543Z,85.71
2023-01-30T03:38:02.993Z,86.15
2023-01-30T03:40:29.654Z,85.91
2023-01-30T03:42:56.907Z,85.83
2023-01-30T03:45:23.738Z,85.52
2023-01-30T03:47:50.328Z,85.64
2023-01-30T03:50:17.605Z,85.63
2023-01-30T03:52:45.371Z,86.01
2023-01-30T03:55:15.665Z,85.67
2023-01-30T03:57:42.955Z,85.70
2023-01-30T04:00:10.559Z,85.31
2023-01-30T04:02:43.192Z,84.83
2023-01-30T04:05:12.515Z,84.96
2023-01-30T04:07:43.715Z,85.24
2023-01-30T04:10:10.885Z,85.17
2023-01-30T04:12:37.362Z,84.77
2023-01-30T04:15:04.321Z,84.85
2023-01-30T04:17:56.678Z,84.59
2023-01-30T04:20:46.324Z,84.40
2023-01-30T04:23:14.748Z,84.23
2023-01-30T04:25:41.455Z,84.42
2023-01-30T04:28:09.459Z,84.24
2023-01-30T04:30:37.991Z,84.24
2023-01-30T04:33:43.191Z,83.87
2023-01-30T04:36:11.447Z,83.38
2023-01-30T04:38:38.943Z,83.35
2023-01-30T04:41:07.067Z,82.49
2023-01-30T04:43:36.175Z,82.82
2023-01-30T04:46:08.371Z,82.90
2023-01-30T04:48:34.910Z,81.77
2023-01-30T04:51:02.319Z,81.75
2023-01-30T04:53:28.853Z,81.32
2023-01-30T04:55:55.283Z,80.67
2023-01-30T04:58:21.941Z,80.05
2023-01-30T05:00:48.891Z,80.24
2023-01-30T05:03:16.176Z,80.13
2023-01-30T05:05:45.883Z,80.34
2023-01-30T05:08:12.279Z,79.83
2023-01-30T05:10:38.762Z,79.48
2023-01-30T05:13:05.874Z,79.56
2023-01-30T05:15:32.973Z,79.66
2023-01-30T05:17:59.439Z,79.88
2023-01-30T05:20:25.864Z,78.60
2023-01-30T05:22:52.537Z,76.51
2023-01-30T05:25:19.225Z,76.99
2023-01-30T05:27:45.797Z,76.21
2023-01-30T05:30:12.240Z,76.47
2023-01-30T05:32:38.611Z,75.25
2023-01-30T05:35:05.474Z,75.75
2023-01-30T05:37:31.868Z,74.38
2023-01-30T05:39:58.296Z,74.55
2023-01-30T05:42:24.666Z,73.83
2023-01-30T05:44:51.090Z,73.60
2023-01-30T05:47:17.443Z,72.61
2023-01-30T05:49:43.841Z,72.91
2023-01-30T05:52:10.289Z,72.62
2023-01-30T05:54:36.794Z,72.15
2023-01-30T05:57:03.187Z,71.95
2023-01-30T05:59:29.623Z,72.63
2023-01-30T06:01:56.018Z,72.68
2023-01-30T06:04:22.572Z,72.62
2023-01-30T06:06:50.682Z,73.25
2023-01-30T06:09:17.477Z,72.69
2023-01-30T06:11:43.839Z,73.46
2023-01-30T06:14:10.257Z,73.13
2023-01-30T06:16:36.730Z,73.54
2023-01-30T06:19:03.301Z,74.30
2023-01-30T06:21:29.639Z,73.68
2023-01-30T06:23:56.001Z,74.56
2023-01-30T06:26:22.491Z,73.77
2023-01-30T06:28:49.728Z,74.25
2023-01-30T06:31:16.685Z,74.16
2023-01-30T06:33:43.892Z,74.05
2023-01-30T06:36:10.309Z,73.93
2023-01-30T06:38:36.734Z,73.88
2023-01-30T06:41:03.163Z,73.43
2023-01-30T06:43:29.594Z,72.94
2023-01-30T06:45:58.926Z,73.13
2023-01-30T06:48:25.422Z,73.08
2023-01-30T06:50:51.815Z,73.06
2023-01-30T06:53:18.186Z,73.00
2023-01-30T06:55:44.571Z,72.31
2023-01-30T06:58:14.855Z,72.62
2023-01-30T07:00:42.816Z,72.40
2023-01-30T07:03:17.600Z,71.90
2023-01-30T07:05:45.965Z,71.84
2023-01-30T07:08:13.315Z,72.34
2023-01-30T07:10:41.200Z,71.98
2023-01-30T07:13:07.813Z,70.98
2023-01-30T07:15:34.284Z,71.18
2023-01-30T07:18:00.792Z,71.42
2023-01-30T07:20:27.378Z,71.17
2023-01-30T07:22:56.061Z,70.72
2023-01-30T07:25:24.795Z,71.34
2023-01-30T07:27:56.047Z,70.24
2023-01-30T07:30:22.638Z,70.13
2023-01-30T07:32:54.531Z,70.26
2023-01-30T07:35:22.938Z,70.73
2023-01-30T07:37:50.271Z,70.81
2023-01-30T07:40:18.471Z,70.78
2023-01-30T07:42:56.066Z,70.65
2023-01-30T07:45:22.519Z,70.74
2023-01-30T07:47:48.882Z,71.12
2023-01-30T07:50:15.929Z,70.64
2023-01-30T07:52:42.436Z,70.48
2023-01-30T07:55:08.850Z,70.91
2023-01-30T07:57:35.272Z,69.75
2023-01-30T08:00:01.930Z,70.83
2023-01-30T08:02:35.280Z,70.31
2023-01-30T08:05:01.732Z,70.47
2023-01-30T08:07:28.122Z,69.15
2023-01-30T08:09:54.486Z,69.81
2023-01-30T08:12:20.925Z,69.37
2023-01-30T08:14:47.325Z,69.82
2023-01-30T08:17:13.760Z,69.15
2023-01-30T08:19:40.140Z,69.89
2023-01-30T08:22:06.569Z,69.65
2023-01-30T08:24:33.085Z,69.70
2023-01-30T08:27:00.284Z,69.73
2023-01-30T08:29:26.644Z,69.63
2023-01-30T08:31:59.941Z,69.81
2023-01-30T08:34:26.981Z,69.13
2023-01-30T08:36:53.493Z,69.31
2023-01-30T08:39:19.969Z,69.35
2023-01-30T08:41:46.453Z,69.99
2023-01-30T08:44:12.999Z,69.93
2023-01-30T08:46:39.732Z,70.07
2023-01-30T08:49:06.820Z,69.94
2023-01-30T08:51:33.642Z,69.75
2023-01-30T08:54:00.129Z,70.33
2023-01-30T08:56:26.565Z,70.11
2023-01-30T08:58:52.955Z,69.92
2023-01-30T09:01:19.860Z,70.30
2023-01-30T09:03:46.372Z,69.09
2023-01-30T09:06:12.781Z,69.46
2023-01-30T09:08:39.365Z,69.61
2023-01-30T09:11:06.115Z,69.68
2023-01-30T09:13:34.731Z,69.95
2023-01-30T09:16:01.330Z,68.99
2023-01-30T09:18:27.739Z,69.45
2023-01-30T09:21:03.201Z,69.59
2023-01-30T09:23:29.644Z,68.74
2023-01-30T09:25:56.047Z,67.93
2023-01-30T09:28:22.562Z,68.99
2023-01-30T09:30:49.124Z,69.39
2023-01-30T09:33:17.797Z,69.48
2023-01-30T09:35:47.401Z,68.45
2023-01-30T09:38:13.824Z,68.50
2023-01-30T09:40:54.097Z,69.48
2023-01-30T09:43:28.333Z,68.83
2023-01-30T09:46:16.476Z,69.32
2023-01-30T09:48:55.469Z,69.54
2023-01-30T09:51:42.931Z,69.74
2023-01-30T09:54:17.943Z,69.44
2023-01-30T09:56:44.635Z,68.92
2023-01-30T09:59:22.272Z,69.32
2023-01-30T10:01:58.719Z,69.24
2023-01-30T10:04:33.544Z,69.06
2023-01-30T10:07:39.286Z,69.88
2023-01-30T10:10:17.777Z,68.85
2023-01-30T10:12:53.573Z,68.14
2023-01-30T10:15:50.950Z,68.30
2023-01-30T10:18:20.392Z,68.83
2023-01-30T10:21:05.686Z,69.11
2023-01-30T10:24:08.565Z,68.49
2023-01-30T10:26:35.254Z,68.56
2023-01-30T10:29:18.537Z,69.02
2023-01-30T10:31:56.711Z,68.77
2023-01-30T10:34:29.942Z,68.30
2023-01-30T10:37:08.582Z,68.65
2023-01-30T10:40:13.470Z,69.13
2023-01-30T10:42:50.655Z,68.21
2023-01-30T10:45:25.398Z,67.90
2023-01-30T10:48:00.692Z,68.03
2023-01-30T10:50:57.321Z,67.32
2023-01-30T10:53:28.498Z,67.19
2023-01-30T10:56:11.387Z,67.43
2023-01-30T10:58:54.081Z,67.61
2023-01-30T11:01:28.449Z,67.49
2023-01-30T11:04:22.611Z,66.97
2023-01-30T11:06:49.385Z,67.25
2023-01-30T11:09:15.754Z,67.85
2023-01-30T11:11:49.571Z,67.50
2023-01-30T11:14:16.078Z,67.13
2023-01-30T11:16:53.945Z,67.21
2023-01-30T11:19:24.895Z,67.91
2023-01-30T11:21:59.832Z,67.46
2023-01-30T11:24:32.028Z,67.17
2023-01-30T11:27:37.165Z,66.46
2023-01-30T11:30:26.601Z,67.12
2023-01-30T11:33:08.976Z,66.81
2023-01-30T11:35:43.863Z,66.38
2023-01-30T11:38:32.227Z,66.95
2023-01-30T11:41:07.251Z,66.69
2023-01-30T11:43:35.340Z,67.38
2023-01-30T11:46:02.404Z,66.89
2023-01-30T11:49:02.985Z,67.33
2023-01-30T11:51:23.724Z,65.98
2023-01-30T11:54:16.096Z,67.07
2023-01-30T11:56:51.792Z,66.63
2023-01-30T11:59:20.998Z,66.34
2023-01-30T12:01:47.650Z,66.34
2023-01-30T12:04:14.336Z,66.14
2023-01-30T12:06:43.298Z,66.27
2023-01-30T12:09:32.971Z,65.92
2023-01-30T12:11:59.400Z,66.04
2023-01-30T12:14:40.947Z,66.70
2023-01-30T12:17:22.280Z,66.92
2023-01-30T12:20:21.254Z,65.28
2023-01-30T12:23:03.611Z,65.54
2023-01-30T12:25:48.185Z,65.62
2023-01-30T12:28:25.674Z,65.09
2023-01-30T12:30:58.147Z,64.18
2023-01-30T12:33:30.144Z,63.84
2023-01-30T12:36:11.567Z,63.76
2023-01-30T12:38:57.697Z,63.56
2023-01-30T12:41:34.670Z,63.73
2023-01-30T12:44:19.487Z,64.86
2023-01-30T12:47:15.052Z,64.93
2023-01-30T12:50:04.502Z,64.69
2023-01-30T12:52:33.598Z,64.88
2023-01-30T12:55:18.855Z,64.70
2023-01-30T12:57:54.110Z,65.51
2023-01-30T13:00:29.606Z,64.85
2023-01-30T13:03:12.581Z,65.07
2023-01-30T13:05:53.914Z,64.38
2023-01-30T13:08:20.315Z,64.48
2023-01-30T13:10:54.602Z,64.46
2023-01-30T13:13:35.941Z,64.43
2023-01-30T13:16:27.511Z,64.77
2023-01-30T13:19:04.866Z,63.92
2023-01-30T13:21:43.548Z,65.11
2023-01-30T13:25:01.037Z,64.83
2023-01-30T13:27:33.330Z,65.49
2023-01-30T13:30:04.403Z,65.12
2023-01-30T13:32:38.669Z,64.35
2023-01-30T13:35:15.332Z,64.23
2023-01-30T13:37:44.436Z,63.56
2023-01-30T13:40:19.467Z,63.72
2023-01-30T13:42:55.157Z,63.77
2023-01-30T13:45:26.058Z,63.74
2023-01-30T13:48:06.321Z,64.43
2023-01-30T13:50:59.010Z,64.63
2023-01-30T13:53:33.075Z,64.72
2023-01-30T13:56:42.614Z,65.30
2023-01-30T13:59:46.928Z,64.96
2023-01-30T14:02:18.922Z,64.58
2023-01-30T14:04:47.541Z,64.61
2023-01-30T14:07:22.641Z,65.05
2023-01-30T14:10:02.966Z,64.54
2023-01-30T14:12:36.778Z,64.94
2023-01-30T14:15:24.023Z,64.88
2023-01-30T14:18:07.429Z,65.09
2023-01-30T14:20:35.764Z,64.82
2023-01-30T14:23:21.315Z,65.17
2023-01-30T14:25:50.987Z,64.63
2023-01-30T14:28:17.383Z,64.29
2023-01-30T14:30:53.705Z,65.28
2023-01-30T14:33:23.086Z,64.40
2023-01-30T14:36:15.082Z,63.71
2023-01-30T14:38:44.425Z,65.03
2023-01-30T14:41:26.358Z,64.52
2023-01-30T14:43:54.245Z,64.75
2023-01-30T14:46:20.941Z,64.69
2023-01-30T14:48:56.836Z,64.13
2023-01-30T14:51:26.078Z,65.06
2023-01-30T14:54:16.852Z,65.07
2023-01-30T14:56:54.128Z,64.59
2023-01-30T14:59:37.966Z,64.92
2023-01-30T15:02:13.667Z,64.31
2023-01-30T15:04:46.902Z,64.23
2023-01-30T15:07:19.098Z,63.83
2023-01-30T15:10:00.805Z,64.10
2023-01-30T15:12:46.050Z,64.62
2023-01-30T15:15:32.560Z,64.69
2023-01-30T15:18:29.222Z,64.28
2023-01-30T15:21:26.608Z,64.84
2023-01-30T15:24:15.097Z,64.67
2023-01-30T15:26:56.872Z,65.41
2023-01-30T15:30:02.041Z,65.04
2023-01-30T15:32:30.906Z,64.47
2023-01-30T15:35:21.797Z,65.63
2023-01-30T15:37:53.628Z,65.48
2023-01-30T15:40:23.663Z,65.78
2023-01-30T15:42:57.348Z,65.92
2023-01-30T15:45:42.673Z,66.92
2023-01-30T15:48:31.285Z,67.22
2023-01-30T15:51:00.112Z,67.98
2023-01-30T15:53:36.837Z,67.94
2023-01-30T15:56:08.705Z,68.09
2023-01-30T15:58:42.176Z,68.63
2023-01-30T16:01:11.002Z,68.70
2023-01-30T16:03:42.547Z,68.34
2023-01-30T16:06:29.394Z,68.46
2023-01-30T16:09:18.253Z,68.74
2023-01-30T16:11:44.699Z,69.04
2023-01-30T16:14:13.731Z,69.22
2023-01-30T16:16:54.959Z,68.77
2023-01-30T16:19:28.613Z,68.84
2023-01-30T16:22:05.147Z,68.60
2023-01-30T16:24:35.763Z,69.26
2023-01-30T16:27:06.457Z,68.84
2023-01-30T16:29:46.606Z,69.52
2023-01-30T16:32:14.675Z,68.63
2023-01-30T16:34:41.227Z,69.13
2023-01-30T16:37:16.752Z,69.89
2023-01-30T16:39:45.611Z,70.71
2023-01-30T16:42:26.336Z,70.77
2023-01-30T16:45:14.073Z,70.76
2023-01-30T16:47:40.825Z,71.40
2023-01-30T16:50:22.524Z,70.44
2023-01-30T16:52:55.072Z,70.74
2023-01-30T16:55:24.242Z,70.37
2023-01-30T16:57:54.453Z,69.65
2023-01-30T17:00:24.353Z,69.47
2023-01-30T17:02:55.712Z,70.27
2023-01-30T17:05:23.431Z,70.06
2023-01-30T17:07:51.190Z,70.75
2023-01-30T17:10:36.625Z,70.92
2023-01-30T17:13:03.909Z,71.56
2023-01-30T17:15:35.194Z,72.29
2023-01-30T17:18:02.317Z,72.60
2023-01-30T17:20:38.018Z,72.70
2023-01-30T17:23:09.200Z,73.20
2023-01-30T17:25:47.982Z,72.76
2023-01-30T17:28:21.592Z,73.10
2023-01-30T17:30:50.205Z,72.38
2023-01-30T17:33:16.828Z,72.76
2023-01-30T17:35:44.461Z,73.46
2023-01-30T17:38:12.188Z,73.30
2023-01-30T17:40:39.052Z,72.93
2023-01-30T17:43:05.644Z,72.75
2023-01-30T17:45:32.172Z,73.00
2023-01-30T17:47:58.637Z,72.72
2023-01-30T17:50:25.288Z,72.29
2023-01-30T17:52:51.701Z,71.88
2023-01-30T17:55:18.619Z,71.45
2023-01-30T17:57:47.802Z,72.03
2023-01-30T18:00:17.027Z,72.24
2023-01-30T18:02:43.929Z,72.73
2023-01-30T18:05:10.664Z,72.27
2023-01-30T18:07:38.156Z,72.00
2023-01-30T18:10:05.038Z,71.28
2023-01-30T18:12:31.508Z,72.13
2023-01-30T18:14:58.529Z,71.92
2023-01-30T18:17:28.391Z,71.79
2023-01-30T18:19:55.398Z,72.35
2023-01-30T18:22:22.420Z,72.60
2023-01-30T18:24:48.904Z,71.84
2023-01-30T18:27:15.354Z,72.14
2023-01-30T18:29:41.800Z,72.34
2023-01-30T18:32:08.221Z,71.91
2023-01-30T18:34:35.275Z,71.64
2023-01-30T18:37:01.743Z,72.02
2023-01-30T18:39:28.195Z,71.80
2023-01-30T18:41:54.626Z,71.37
2023-01-30T18:44:21.251Z,71.55
2023-01-30T18:46:50.027Z,71.42
2023-01-30T18:49:16.421Z,71.77
2023-01-30T18:51:42.846Z,72.07
2023-01-30T18:54:09.337Z,72.20
2023-01-30T18:56:36.412Z,71.47
2023-01-30T18:59:05.103Z,72.35
2023-01-30T19:01:35.343Z,71.88
2023-01-30T19:04:03.197Z,71.97
2023-01-30T19:06:30.127Z,71.46
2023-01-30T19:08:56.656Z,71.16
2023-01-30T19:11:42.023Z,71.73
2023-01-30T19:14:09.592Z,71.68
2023-01-30T19:16:38.739Z,72.08
2023-01-30T19:19:06.844Z,71.59
2023-01-30T19:21:34.115Z,71.73
2023-01-30T19:24:11.316Z,71.32
2023-01-30T19:26:37.790Z,71.27
2023-01-30T19:29:04.408Z,71.06
2023-01-30T19:31:30.992Z,71.07
2023-01-30T19:34:00.852Z,71.04
2023-01-30T19:36:30.098Z,70.57
2023-01-30T19:38:59.349Z,70.80
2023-01-30T19:41:28.455Z,71.28
2023-01-30T19:43:56.076Z,70.67
2023-01-30T19:46:23.286Z,70.53
2023-01-30T19:48:50.131Z,71.01
2023-01-30T19:51:20.931Z,71.24
2023-01-30T19:53:54.977Z,71.05
2023-01-30T19:56:24.786Z,71.08
2023-01-30T19:58:52.982Z,71.07
2023-01-30T20:01:21.309Z,70.45
2023-01-30T20:03:48.044Z,71.07
2023-01-30T20:06:19.995Z,70.66
2023-01-30T20:08:50.156Z,70.79
2023-01-30T20:11:18.762Z,71.57
2023-01-30T20:13:46.035Z,70.57
2023-01-30T20:16:18.426Z,71.28
2023-01-30T20:18:46.063Z,70.72
2023-01-30T20:21:15.512Z,70.81
2023-01-30T20:23:42.728Z,71.23
2023-01-30T20:26:11.382Z,70.55
2023-01-30T20:28:38.195Z,70.16
2023-01-30T20:31:16.559Z,70.95
2023-01-30T20:33:43.046Z,70.52
2023-01-30T20:36:12.115Z,70.18
2023-01-30T20:38:40.357Z,70.38
2023-01-30T20:41:18.655Z,70.42
2023-01-30T20:43:51.188Z,70.35
2023-01-30T20:46:22.983Z,70.32
2023-01-30T20:48:52.247Z,70.24
2023-01-30T20:51:23.178Z,70.38
2023-01-30T20:53:58.163Z,69.96
2023-01-30T20:56:26.850Z,70.99
2023-01-30T20:58:53.371Z,70.58
2023-01-30T21:01:22.141Z,70.42
2023-01-30T21:03:50.747Z,70.81
2023-01-30T21:06:41.116Z,71.06
2023-01-30T21:09:06.762Z,70.81
2023-01-30T21:11:33.699Z,70.75
2023-01-30T21:14:00.887Z,70.57
2023-01-30T21:16:29.364Z,69.91
2023-01-30T21:19:01.313Z,70.09
2023-01-30T21:21:39.207Z,70.22
2023-01-30T21:24:09.591Z,70.81
2023-01-30T21:26:38.550Z,71.05
2023-01-30T21:29:08.136Z,70.80
2023-01-30T21:31:36.016Z,71.14
2023-01-30T21:34:03.325Z,71.10
2023-01-30T21:36:29.861Z,71.42
2023-01-30T21:39:14.982Z,71.59
2023-01-30T21:42:02.119Z,71.28
2023-01-30T21:44:33.889Z,71.13
2023-01-30T21:47:00.318Z,71.56
2023-01-30T21:49:26.800Z,71.24
2023-01-30T21:51:54.324Z,71.40
2023-01-30T21:54:22.090Z,71.58
2023-01-30T21:56:49.490Z,71.68
2023-01-30T21:59:16.662Z,70.96
2023-01-30T22:01:43.786Z,71.48
2023-01-30T22:04:13.861Z,70.88
2023-01-30T22:06:41.018Z,70.82
2023-01-30T22:09:08.226Z,70.81
2023-01-30T22:11:36.453Z,70.32
2023-01-30T22:14:03.776Z,70.91
2023-01-30T22:16:30.559Z,70.99
2023-01-30T22:18:59.605Z,71.01
2023-01-30T22:21:32.190Z,70.69
2023-01-30T22:23:58.993Z,70.47
2023-01-30T22:26:26.396Z,69.63
2023-01-30T22:28:57.958Z,69.57
2023-01-30T22:31:26.063Z,70.21
2023-01-30T22:33:54.976Z,69.93
2023-01-30T22:36:27.335Z,70.03
2023-01-30T22:38:54.268Z,69.76
2023-01-30T22:41:26.718Z,69.75
2023-01-30T22:43:55.815Z,69.83
2023-01-30T22:46:25.418Z,69.95
2023-01-30T22:48:52.433Z,69.93
2023-01-30T22:51:21.865Z,70.43
2023-01-30T22:53:51.767Z,70.06
2023-01-30T22:56:26.783Z,69.90
2023-01-30T22:58:54.039Z,70.22
2023-01-30T23:01:26.431Z,69.81
2023-01-30T23:04:04.790Z,70.50
2023-01-30T23:06:32.084Z,70.14
2023-01-30T23:09:00.125Z,69.62
2023-01-30T23:11:34.032Z,70.14
2023-01-30T23:14:12.915Z,69.55
2023-01-30T23:16:41.750Z,70.01
2023-01-30T23:19:09.939Z,70.10
2023-01-30T23:21:45.478Z,70.39
2023-01-30T23:24:16.247Z,70.50
2023-01-30T23:26:46.532Z,70.61
2023-01-30T23:29:15.869Z,70.82
2023-01-30T23:31:44.315Z,70.41
2023-01-30T23:34:16.855Z,70.64
2023-01-30T23:36:43.642Z,71.01
2023-01-30T23:39:11.036Z,70.18
2023-01-30T23:41:37.597Z,70.67
2023-01-30T23:44:04.397Z,70.43
2023-01-30T23:46:36.533Z,70.52
2023-01-30T23:49:13.915Z,70.77
2023-01-30T23:51:43.215Z,71.33
2023-01-30T23:54:11.074Z,71.74
2023-01-30T23:56:40.756Z,71.42
2023-01-30T23:59:07.482Z,71.15
